Roy Baker — WDC2698 — position and weather

sailwx.info

Track history (hours):
 
Tides and Currents Weather Stations Pressure Air Temp Water Temp Dewpoint Dewpoint Depression Visibility Wind Speed Wind Dir Waves Ship Positions

Roy Baker

Owner: Kirby Inland Marine LP, Houston, TX. More information available from US FCC via Universal Licensing System and Coast Guard Vessel Documentation Center.

Last reported at 2016-Aug-22 11:33 UTC. Time now 2016-Aug-29 05:29 UTC.
Position N 29°34' W 090°32'.

Length 24 m.

Type: Towing. MMSI: 366996540.

Date/timePositionNaut miles runAvg speedWind from/ knotsBaromVisibWave heightAir tempDewpointWater temp
2016-Aug-22 11:33N 29°34' W 090°32'3 3.4
2016-Aug-22 10:33N 29°35' W 090°36'4 4.0
2016-Aug-22 09:33N 29°36' W 090°40'3 2.7
2016-Aug-22 08:33N 29°35' W 090°43'3 3.5
2016-Aug-22 07:33N 29°32' W 090°46'3 3.2
2016-Aug-22 06:33N 29°32' W 090°50'6 5.7
2016-Aug-22 05:32N 29°34' W 090°56'55 4.5
2016-Aug-21 17:10N 29°51' W 091°57'3 5.3
2016-Aug-21 16:33N 29°50' W 092°00'6 6.0
2016-Aug-21 15:33N 29°48' W 092°07'6 5.8
2016-Aug-21 14:33N 29°48' W 092°14'4 4.4
2016-Aug-21 13:33N 29°50' W 092°18'3 3.1
2016-Aug-21 12:33N 29°51' W 092°21'35 5.5
2016-Aug-21 06:06N 29°56' W 093°02'2 4.3
2016-Aug-21 05:33N 29°56' W 093°04'4 4.2
2016-Aug-21 04:33N 29°56' W 093°09'5 4.9
2016-Aug-21 03:33N 29°60' W 093°13'4 4.2
2016-Aug-21 02:33N 30°03' W 093°16'4 3.9
2016-Aug-21 01:33N 30°06' W 093°19'4 4.1
2016-Aug-21 00:33N 30°04' W 093°22'5 5.3
2016-Aug-20 23:33N 30°04' W 093°28'5 5.5
2016-Aug-20 22:33N 30°04' W 093°35'6 5.8
2016-Aug-20 21:33N 30°04' W 093°42'21 0.5
2016-Aug-19 05:32N 29°49' W 093°59'0 0.0
2016-Aug-19 04:23N 29°49' W 093°59'0 0.0
2016-Aug-19 03:33N 29°49' W 093°59'0 0.0
2016-Aug-19 02:25N 29°49' W 093°59'0 0.0
2016-Aug-18 07:06N 29°49' W 093°58'0 0.0
2016-Aug-18 05:33N 29°49' W 093°58'0 0.0
2016-Aug-18 04:25N 29°49' W 093°58'0 0.0
2016-Aug-18 03:19N 29°49' W 093°58'0 0.0
2016-Aug-18 02:19N 29°49' W 093°58'0 0.1
2016-Aug-17 21:09N 29°49' W 093°58'13 7.5
2016-Aug-17 19:27N 29°59' W 093°48'7 7.6
2016-Aug-17 18:33N 30°03' W 093°42'8 7.8
2016-Aug-17 17:33N 30°04' W 093°33'8 7.6
2016-Aug-17 16:33N 30°04' W 093°24'6 5.7
2016-Aug-17 15:33N 30°06' W 093°19'5 4.6
2016-Aug-17 14:33N 30°02' W 093°16'7 7.1
2016-Aug-17 13:33N 29°57' W 093°10'7 7.3
2016-Aug-17 12:33N 29°56' W 093°02'8 7.8
2016-Aug-17 11:32N 29°57' W 092°53'7 7.2
2016-Aug-17 10:32N 29°58' W 092°45'7 6.8
2016-Aug-17 09:31N 29°55' W 092°37'7 6.8
2016-Aug-17 08:33N 29°54' W 092°30'7 6.6
2016-Aug-17 07:33N 29°52' W 092°22'6 5.8
2016-Aug-17 06:33N 29°49' W 092°17'6 5.7
2016-Aug-17 05:33N 29°47' W 092°11'6 6.4
2016-Aug-17 04:33N 29°48' W 092°04'7 6.4
2016-Aug-17 03:32N 29°51' W 091°57'62 6.2
2016-Aug-16 17:33N 29°32' W 090°48'5 5.2
2016-Aug-16 16:33N 29°35' W 090°43'4 4.2
2016-Aug-16 15:33N 29°35' W 090°38'  
Track history (hours):
 
Tides and Currents Weather Stations Pressure Air Temp Water Temp Dewpoint Dewpoint Depression Visibility Wind Speed Wind Dir Waves Ship Positions

Roy Baker

Owner: Kirby Inland Marine LP, Houston, TX. More information available from US FCC via Universal Licensing System and Coast Guard Vessel Documentation Center.

Last reported at 2016-Aug-22 11:33 UTC. Time now 2016-Aug-29 05:29 UTC.
Position N 29°34' W 090°32'.

Length 24 m.

Type: Towing. MMSI: 366996540.

Date/timePositionNaut miles runAvg speedWind from/ knotsBaromVisibWave heightAir tempDewpointWater temp
2016-Aug-22 11:33N 29°34' W 090°32'3 3.4
2016-Aug-22 10:33N 29°35' W 090°36'4 4.0
2016-Aug-22 09:33N 29°36' W 090°40'3 2.7
2016-Aug-22 08:33N 29°35' W 090°43'3 3.5
2016-Aug-22 07:33N 29°32' W 090°46'3 3.2
2016-Aug-22 06:33N 29°32' W 090°50'6 5.7
2016-Aug-22 05:32N 29°34' W 090°56'55 4.5
2016-Aug-21 17:10N 29°51' W 091°57'3 5.3
2016-Aug-21 16:33N 29°50' W 092°00'6 6.0
2016-Aug-21 15:33N 29°48' W 092°07'6 5.8
2016-Aug-21 14:33N 29°48' W 092°14'4 4.4
2016-Aug-21 13:33N 29°50' W 092°18'3 3.1
2016-Aug-21 12:33N 29°51' W 092°21'35 5.5
2016-Aug-21 06:06N 29°56' W 093°02'2 4.3
2016-Aug-21 05:33N 29°56' W 093°04'4 4.2
2016-Aug-21 04:33N 29°56' W 093°09'5 4.9
2016-Aug-21 03:33N 29°60' W 093°13'4 4.2
2016-Aug-21 02:33N 30°03' W 093°16'4 3.9
2016-Aug-21 01:33N 30°06' W 093°19'4 4.1
2016-Aug-21 00:33N 30°04' W 093°22'5 5.3
2016-Aug-20 23:33N 30°04' W 093°28'5 5.5
2016-Aug-20 22:33N 30°04' W 093°35'6 5.8
2016-Aug-20 21:33N 30°04' W 093°42'21 0.5
2016-Aug-19 05:32N 29°49' W 093°59'0 0.0
2016-Aug-19 04:23N 29°49' W 093°59'0 0.0
2016-Aug-19 03:33N 29°49' W 093°59'0 0.0
2016-Aug-19 02:25N 29°49' W 093°59'0 0.0
2016-Aug-18 07:06N 29°49' W 093°58'0 0.0
2016-Aug-18 05:33N 29°49' W 093°58'0 0.0
2016-Aug-18 04:25N 29°49' W 093°58'0 0.0
2016-Aug-18 03:19N 29°49' W 093°58'0 0.0
2016-Aug-18 02:19N 29°49' W 093°58'0 0.1
2016-Aug-17 21:09N 29°49' W 093°58'13 7.5
2016-Aug-17 19:27N 29°59' W 093°48'7 7.6
2016-Aug-17 18:33N 30°03' W 093°42'8 7.8
2016-Aug-17 17:33N 30°04' W 093°33'8 7.6
2016-Aug-17 16:33N 30°04' W 093°24'6 5.7
2016-Aug-17 15:33N 30°06' W 093°19'5 4.6
2016-Aug-17 14:33N 30°02' W 093°16'7 7.1
2016-Aug-17 13:33N 29°57' W 093°10'7 7.3
2016-Aug-17 12:33N 29°56' W 093°02'8 7.8
2016-Aug-17 11:32N 29°57' W 092°53'7 7.2
2016-Aug-17 10:32N 29°58' W 092°45'7 6.8
2016-Aug-17 09:31N 29°55' W 092°37'7 6.8
2016-Aug-17 08:33N 29°54' W 092°30'7 6.6
2016-Aug-17 07:33N 29°52' W 092°22'6 5.8
2016-Aug-17 06:33N 29°49' W 092°17'6 5.7
2016-Aug-17 05:33N 29°47' W 092°11'6 6.4
2016-Aug-17 04:33N 29°48' W 092°04'7 6.4
2016-Aug-17 03:32N 29°51' W 091°57'62 6.2
2016-Aug-16 17:33N 29°32' W 090°48'5 5.2
2016-Aug-16 16:33N 29°35' W 090°43'4 4.2
2016-Aug-16 15:33N 29°35' W 090°38'  

Dump ship's entire track history